Time;durP1;ratioP1;P1;durP2;ratioP2;P2;SDS_P1;SDS_P2;PMS_P1;PMS_P2;Temp;Humidity;BMP_temperature;BMP_pressure;BME280_temperature;BME280_humidity;BME280_pressure;Samples;Min_cycle;Max_cycle;Signal;HPM_P1;HPM_P2
2024/04/15 00:01:09;;;;;;;6.18;2.63;;;;;;;-144.05;78.18;56916.81;5363498;26;20153;-81
2024/04/15 00:03:35;;;;;;;5.72;2.38;;;7.80;99.90;;;-144.05;79.50;56878.56;5358917;26;20011;-81
2024/04/15 00:06:01;;;;;;;11.30;2.97;;;7.60;99.90;;;-144.05;78.64;56884.94;5370871;26;19996;-80
2024/04/15 00:08:27;;;;;;;8.75;2.70;;;;;;;-144.05;79.71;56908.31;5369848;26;20009;-81
2024/04/15 00:10:53;;;;;;;6.13;2.30;;;;;;;-144.05;79.43;56874.31;5379008;26;20008;-80
2024/04/15 00:13:19;;;;;;;5.03;2.90;;;;;;;-144.05;79.74;56899.81;5345586;26;19993;-77
2024/04/15 00:15:57;;;;;;;6.82;2.53;;;7.50;99.90;;;-144.05;79.63;56895.56;5394671;26;20012;-79
2024/04/15 00:18:25;;;;;;;5.32;2.70;;;11.10;99.90;;;-144.05;79.79;56912.56;5375183;26;20338;-82
2024/04/15 00:20:58;;;;;;;7.65;3.28;;;7.50;99.90;;;-144.05;81.20;56891.31;5370409;26;20083;-84
2024/04/15 00:23:26;;;;;;;9.25;3.30;;;;;;;-144.05;81.46;56895.56;5362972;26;20008;-83
2024/04/15 00:25:58;;;;;;;10.85;3.22;;;7.60;99.90;;;-144.05;81.37;56916.81;5375664;26;20005;-83
2024/04/15 00:28:25;;;;;;;9.30;3.25;;;9.80;99.90;;;-144.05;81.85;56914.69;5377882;26;20012;-82
2024/04/15 00:30:51;;;;;;;8.10;2.92;;;14.50;99.90;;;-144.05;81.87;56891.31;5377644;26;20004;-82
2024/04/15 00:33:17;;;;;;;7.63;3.70;;;;;;;-144.05;81.74;56916.81;5377942;26;20001;-83
2024/04/15 00:35:47;;;;;;;7.07;3.08;;;7.70;99.90;;;-144.05;81.85;56887.06;5370480;26;20016;-81
2024/04/15 00:38:14;;;;;;;7.13;3.25;;;7.20;99.90;;;-144.05;82.28;56895.56;5376096;26;20015;-80
2024/04/15 00:40:41;;;;;;;9.82;3.13;;;;;;;-144.05;81.78;56887.06;5377813;26;20077;-81
2024/04/15 00:43:07;;;;;;;7.05;2.60;;;7.60;99.90;;;-144.05;81.51;56878.56;5375838;26;19996;-80
2024/04/15 00:45:34;;;;;;;6.30;3.00;;;;;;;-144.05;81.21;56912.56;5377723;26;20056;-77
2024/04/15 00:48:07;;;;;;;5.90;2.42;;;9.50;99.90;;;-144.05;80.49;56912.56;5377884;26;20008;-80
2024/04/15 00:50:39;;;;;;;5.60;2.40;;;9.20;99.90;;;-144.05;80.58;56891.31;5378109;26;20087;-81
2024/04/15 00:53:08;;;;;;;8.43;2.75;;;9.40;99.90;;;-144.05;80.97;56891.31;5340860;26;20074;-81
2024/04/15 00:55:37;;;;;;;6.15;2.50;;;9.40;99.90;;;-144.05;80.54;56889.19;5379553;26;20003;-80
2024/04/15 00:58:06;;;;;;;6.35;2.58;;;9.40;99.90;;;-144.05;81.07;56910.44;5349681;26;20014;-80
2024/04/15 01:00:34;;;;;;;7.75;3.15;;;7.70;99.90;;;-144.05;81.62;56891.31;5380707;26;20007;-80
2024/04/15 01:03:01;;;;;;;7.55;3.67;;;9.40;99.90;;;-144.05;82.39;56895.56;5373978;26;20043;-80
2024/04/15 01:05:27;;;;;;;7.57;3.08;;;7.20;99.90;;;-144.05;82.06;56882.81;5381089;26;20102;-81
2024/04/15 01:07:53;;;;;;;6.65;3.17;;;10.90;99.90;;;-144.05;81.69;56906.19;5380982;26;20421;-80
2024/04/15 01:10:19;;;;;;;5.18;2.50;;;11.00;99.90;;;-144.05;81.72;56889.19;5378934;26;20031;-80
2024/04/15 01:12:45;;;;;;;4.35;2.55;;;;;;;-144.05;81.44;56908.31;5346984;26;20012;-80
2024/04/15 01:15:11;;;;;;;7.68;2.67;;;7.30;99.90;;;-144.05;81.59;56908.31;5381191;26;20004;-81
2024/04/15 01:17:37;;;;;;;7.90;3.05;;;7.00;99.90;;;-144.05;81.51;56906.19;5344811;26;20029;-80
2024/04/15 01:20:03;;;;;;;5.95;2.60;;;13.90;99.90;;;-144.05;81.05;56916.81;5349823;26;20044;-79
2024/04/15 01:22:49;;;;;;;5.95;2.60;;;8.90;99.90;;;-144.05;82.14;56916.81;5380651;26;20000;-81
2024/04/15 01:25:15;;;;;;;11.25;3.55;;;10.70;99.90;;;-144.05;82.82;56901.94;5381585;26;20033;-80
2024/04/15 01:27:41;;;;;;;5.78;3.25;;;;;;;-144.05;83.22;56904.06;5380704;26;20004;-83
2024/04/15 01:30:10;;;;;;;6.82;3.25;;;7.20;99.90;;;-144.05;83.05;56895.56;5379093;26;20028;-82
2024/04/15 01:32:35;;;;;;;6.43;2.80;;;7.00;99.90;;;-144.05;82.51;56942.28;5349528;26;20449;-82
2024/04/15 01:35:01;;;;;;;5.80;3.45;;;7.00;99.90;;;-144.05;83.82;56916.81;5375291;26;20075;-80
2024/04/15 01:37:28;;;;;;;10.20;3.58;;;8.70;99.90;;;-144.05;83.61;56916.81;5380267;26;20068;-80
2024/04/15 01:39:54;;;;;;;6.85;3.50;;;10.90;99.90;;;-144.05;83.84;56927.41;5349752;26;20031;-81
2024/04/15 01:42:20;;;;;;;10.75;4.25;;;;;;;-144.05;84.30;56916.81;5353181;26;20000;-81
2024/04/15 01:44:46;;;;;;;12.35;4.82;;;7.30;99.90;;;-144.05;84.97;56912.56;5360962;26;20360;-81
2024/04/15 01:47:12;;;;;;;14.90;4.97;;;10.90;99.90;;;-144.05;85.93;56887.06;5349540;26;19997;-81
2024/04/15 01:49:38;;;;;;;9.75;4.88;;;;;;;-144.05;85.73;56927.41;5380833;26;20008;-79
2024/04/15 01:52:04;;;;;;;14.13;5.10;;;13.90;99.90;;;-144.05;86.25;56891.31;5380658;26;20015;-81
2024/04/15 01:54:30;;;;;;;10.30;4.95;;;7.10;99.90;;;-144.05;87.04;56901.94;5380692;26;19997;-79
2024/04/15 01:56:56;;;;;;;13.63;5.00;;;7.00;99.90;;;-144.05;86.87;56935.91;5380902;26;20000;-79
2024/04/15 01:59:22;;;;;;;12.73;5.20;;;10.70;99.90;;;-144.05;86.44;56901.94;5380597;26;20406;-80
2024/04/15 02:01:48;;;;;;;12.43;5.47;;;;;;;-144.05;86.14;56889.19;5383603;26;19999;-74
2024/04/15 02:04:14;;;;;;;11.48;5.53;;;6.90;99.90;;;-144.05;86.82;56914.69;5345442;26;20011;-81
2024/04/15 02:06:40;;;;;;;13.18;5.68;;;7.60;99.90;;;-144.05;86.27;56942.28;5375632;26;19996;-80
2024/04/15 02:09:06;;;;;;;10.10;6.07;;;7.20;99.90;;;-144.05;86.33;56908.31;5349232;26;20410;-81
2024/04/15 02:11:32;;;;;;;10.98;5.28;;;10.60;99.90;;;-144.05;85.72;56895.56;5374298;26;20008;-79
2024/04/15 02:13:57;;;;;;;13.10;5.75;;;11.10;99.90;;;-144.05;86.06;56887.06;5374086;26;20108;-80
2024/04/15 02:16:24;;;;;;;15.13;5.78;;;;;;;-144.05;86.36;56891.31;5347102;26;20073;-81
2024/04/15 02:18:50;;;;;;;11.60;6.32;;;;;;;-144.05;86.89;56906.19;5379955;26;19997;-80
2024/04/15 02:21:16;;;;;;;18.05;6.80;;;6.80;99.90;;;-144.05;86.90;56912.56;5380215;26;20329;-80
2024/04/15 02:23:42;;;;;;;12.10;6.72;;;;;;;-144.05;86.62;56901.94;5380041;26;20000;-80
2024/04/15 02:26:08;;;;;;;10.85;6.95;;;10.80;99.90;;;-144.05;87.10;56912.56;5374240;26;20335;-80
2024/04/15 02:28:33;;;;;;;15.75;6.90;;;7.20;99.90;;;-144.05;87.34;56914.69;5374084;26;20027;-80
2024/04/15 02:31:00;;;;;;;13.65;7.57;;;7.10;99.90;;;-144.05;87.66;56923.19;5349376;26;20411;-80
2024/04/15 02:33:25;;;;;;;13.43;7.22;;;7.50;99.90;;;-144.05;87.88;56921.06;5341083;26;20532;-80
2024/04/15 02:35:52;;;;;;;13.30;8.20;;;;;;;-144.05;88.13;56908.31;5380071;26;20000;-80
2024/04/15 02:38:17;;;;;;;15.80;9.88;;;7.20;99.90;;;-144.05;88.07;56925.28;5380234;26;20000;-81
2024/04/15 02:40:43;;;;;;;13.80;9.80;;;6.80;99.90;;;-144.05;88.23;56895.56;5379734;26;20014;-79
2024/04/15 02:43:10;;;;;;;15.23;9.05;;;;;;;-144.05;87.65;56927.41;5348573;26;20007;-81
2024/04/15 02:45:36;;;;;;;15.10;9.90;;;7.00;99.90;;;-144.05;87.70;56910.44;5379806;26;20031;-81
2024/04/15 02:48:02;;;;;;;14.77;9.13;;;;;;;-144.05;87.63;56893.44;5379651;26;20027;-80
2024/04/15 02:50:28;;;;;;;17.52;9.32;;;7.10;99.90;;;-144.05;87.57;56870.06;5379659;26;20008;-80
2024/04/15 02:52:54;;;;;;;14.23;8.90;;;8.60;99.90;;;-144.05;87.61;56899.81;5379273;26;19996;-81
2024/04/15 02:55:20;;;;;;;18.92;9.38;;;;;;;-144.05;88.29;56933.78;5348823;26;20000;-81
2024/04/15 02:57:46;;;;;;;18.30;10.30;;;;;;;-144.05;88.13;56904.06;5379558;26;20004;-80
2024/04/15 03:00:12;;;;;;;17.90;11.70;;;7.30;99.90;;;-144.05;88.26;56887.06;5377706;26;20012;-81
2024/04/15 03:02:38;;;;;;;18.80;10.32;;;;;;;-144.05;88.17;56935.91;5379366;26;20015;-81
2024/04/15 03:05:05;;;;;;;20.67;11.00;;;;;;;-144.05;88.46;56878.56;5378048;26;20128;-83
2024/04/15 03:07:31;;;;;;;16.38;11.30;;;;;;;-144.05;88.40;56908.31;5373127;26;20380;-81
2024/04/15 03:09:57;;;;;;;19.08;12.10;;;;;;;-144.05;88.83;56882.81;5379347;26;20000;-79
2024/04/15 03:12:23;;;;;;;17.77;11.15;;;7.30;99.90;;;-144.05;88.86;56897.69;5379484;26;20012;-80
2024/04/15 03:14:49;;;;;;;25.65;11.23;;;6.90;99.90;;;-144.05;88.77;56912.56;5379720;26;20014;-81
2024/04/15 03:17:16;;;;;;;25.48;11.15;;;;;;;-144.05;89.49;56870.06;5378078;26;20005;-81
2024/04/15 03:19:42;;;;;;;20.98;12.30;;;7.00;99.90;;;-144.05;89.32;56912.56;5377258;26;20004;-80
2024/04/15 03:22:08;;;;;;;23.40;13.15;;;7.60;99.90;;;-144.05;89.25;56897.69;5342568;26;20567;-80
2024/04/15 03:24:36;;;;;;;22.35;13.15;;;7.50;99.90;;;-144.05;89.36;56940.16;5374742;26;20004;-80
2024/04/15 03:27:02;;;;;;;25.25;13.73;;;6.70;99.90;;;-144.05;89.13;56887.06;5379046;26;20011;-79
2024/04/15 03:29:28;;;;;;;21.45;13.18;;;9.10;99.90;;;-144.05;89.67;56889.19;5379293;26;20060;-82
2024/04/15 03:31:54;;;;;;;25.30;13.77;;;;;;;-144.05;89.81;56918.94;5378964;26;20004;-79
2024/04/15 03:34:20;;;;;;;23.08;14.55;;;7.50;99.90;;;-144.05;90.01;56901.94;5379386;26;20000;-81
2024/04/15 03:36:46;;;;;;;24.08;15.02;;;;;;;-144.05;90.25;56921.06;5378891;26;20423;-81
2024/04/15 03:39:12;;;;;;;28.13;15.93;;;;;;;-144.05;90.92;56904.06;5379183;26;20015;-82
2024/04/15 03:41:38;;;;;;;26.92;16.60;;;7.70;99.90;;;-144.05;90.44;56931.66;5379886;26;20073;-80
2024/04/15 03:44:04;;;;;;;22.52;15.13;;;7.20;99.90;;;-144.05;90.34;56935.91;5370087;26;20004;-81
2024/04/15 03:46:30;;;;;;;26.38;17.15;;;7.20;99.90;;;-144.05;90.65;56921.06;5347958;26;20006;-80
2024/04/15 03:48:56;;;;;;;28.20;17.45;;;7.20;99.90;;;-144.05;90.82;56912.56;5347642;26;20000;-78
2024/04/15 03:51:22;;;;;;;33.20;17.33;;;7.70;99.90;;;-144.05;90.17;56901.94;5379157;26;20004;-81
2024/04/15 03:53:48;;;;;;;29.20;17.58;;;7.60;99.90;;;-144.05;89.96;56929.53;5378781;26;20558;-78
2024/04/15 03:56:13;;;;;;;26.02;17.75;;;7.50;99.90;;;-144.05;90.22;56921.06;5379383;26;20008;-81
2024/04/15 03:58:39;;;;;;;32.92;18.33;;;7.30;99.90;;;-144.05;89.73;56906.19;5387373;26;20000;-78
2024/04/15 04:01:05;;;;;;;25.73;17.33;;;7.10;99.90;;;-144.05;89.34;56935.91;5392770;26;20007;-79
2024/04/15 04:03:31;;;;;;;26.95;15.98;;;;;;;-144.05;89.58;56916.81;5385537;26;20035;-80
2024/04/15 04:05:58;;;;;;;25.25;17.17;;;;;;;-144.05;89.33;56914.69;5378872;26;20081;-82
2024/04/15 04:08:23;;;;;;;33.05;16.20;;;7.50;99.90;;;-144.05;89.36;56931.66;5379148;26;20004;-80
2024/04/15 04:10:50;;;;;;;27.77;16.98;;;7.20;99.90;;;-144.05;89.67;56912.56;5355167;26;20031;-81
2024/04/15 04:13:15;;;;;;;26.20;16.63;;;7.40;99.90;;;-144.05;89.47;56906.19;5347507;26;20000;-80
2024/04/15 04:15:41;;;;;;;25.92;16.30;;;7.40;99.90;;;-144.05;89.04;56901.94;5378766;26;20018;-80
2024/04/15 04:18:10;;;;;;;29.15;16.45;;;8.90;99.90;;;-144.05;89.20;56912.56;5347382;26;19996;-80
2024/04/15 04:20:36;;;;;;;29.13;16.15;;;6.90;99.90;;;-144.05;89.24;56908.31;5378364;26;20000;-82
2024/04/15 04:23:02;;;;;;;30.13;16.38;;;7.30;99.90;;;-144.05;88.44;56910.44;5378911;26;20038;-81
2024/04/15 04:25:28;;;;;;;25.15;15.73;;;;;;;-144.05;88.80;56893.44;5371896;26;20000;-81
2024/04/15 04:27:54;;;;;;;30.70;15.38;;;;;;;-144.05;88.36;56889.19;5347010;26;20730;-80
2024/04/15 04:30:20;;;;;;;22.90;16.08;;;;;;;-144.05;88.10;56916.81;5375039;26;20005;-80
2024/04/15 04:32:47;;;;;;;29.02;15.35;;;;;;;-144.05;88.21;56942.28;5379328;26;20001;-80
2024/04/15 04:35:13;;;;;;;20.60;14.15;;;6.90;99.90;;;-144.05;87.95;56918.94;5380551;26;20453;-80
2024/04/15 04:37:39;;;;;;;25.05;13.93;;;;;;;-144.05;87.37;56927.41;5372145;26;20099;-80
2024/04/15 04:40:06;;;;;;;22.15;12.98;;;8.10;99.90;;;-144.05;86.74;56921.06;5380687;26;20008;-81
2024/04/15 04:42:31;;;;;;;25.48;12.90;;;7.60;99.90;;;-144.05;86.32;56916.81;5351070;26;19997;-80
2024/04/15 04:44:57;;;;;;;27.15;12.93;;;6.70;99.90;;;-144.05;86.39;56921.06;5376593;26;20012;-81
2024/04/15 04:47:24;;;;;;;19.88;12.68;;;;;;;-144.05;86.35;56923.19;5378704;26;19996;-81
2024/04/15 04:49:52;;;;;;;23.35;11.55;;;7.70;99.90;;;-144.05;85.57;56910.44;5351428;26;20000;-80
2024/04/15 04:52:19;;;;;;;22.08;12.63;;;8.80;99.90;;;-144.05;85.98;56906.19;5382713;26;20356;-81
2024/04/15 04:54:45;;;;;;;27.85;12.40;;;7.30;99.90;;;-144.05;85.37;56891.31;5382516;26;19999;-82
2024/04/15 04:57:11;;;;;;;18.35;11.45;;;8.20;99.90;;;-144.05;85.06;56887.06;5351539;26;20461;-80
2024/04/15 04:59:37;;;;;;;17.00;10.95;;;8.70;99.90;;;-144.05;84.26;56912.56;5351539;26;20001;-80
2024/04/15 05:02:03;;;;;;;15.35;11.00;;;8.00;99.90;;;-144.05;84.82;56914.69;5356384;26;20028;-80
2024/04/15 05:04:30;;;;;;;20.08;11.48;;;;;;;-144.05;84.16;56908.31;5389970;26;20012;-83
2024/04/15 05:06:56;;;;;;;18.92;10.35;;;8.20;99.90;;;-144.05;84.16;56912.56;5377875;26;20005;-80
2024/04/15 05:09:22;;;;;;;22.20;11.40;;;7.10;99.90;;;-144.05;83.96;56882.81;5379067;26;20012;-82
2024/04/15 05:11:49;;;;;;;21.13;11.25;;;;;;;-144.05;84.05;56904.06;5377455;26;20020;-81
2024/04/15 05:14:16;;;;;;;25.08;13.85;;;;;;;-144.05;84.42;56891.31;5389998;26;19995;-79
2024/04/15 05:16:41;;;;;;;23.58;11.68;;;7.50;99.90;;;-144.05;84.19;56908.31;5354398;26;20357;-80
2024/04/15 05:19:08;;;;;;;24.33;12.63;;;9.10;99.90;;;-144.05;83.77;56914.69;5351010;26;20005;-80
2024/04/15 05:21:35;;;;;;;22.73;11.38;;;9.00;99.90;;;-144.05;83.75;56874.31;5375762;26;20123;-80
2024/04/15 05:24:01;;;;;;;24.80;11.98;;;9.10;99.90;;;-144.05;84.04;56884.94;5350088;26;20376;-80
2024/04/15 05:26:27;;;;;;;20.55;11.57;;;8.80;99.90;;;-144.05;83.95;56914.69;5378044;26;20576;-80
2024/04/15 05:28:53;;;;;;;25.40;13.50;;;7.00;99.90;;;-144.05;83.77;56893.44;5380935;26;20012;-80
2024/04/15 05:31:19;;;;;;;20.08;11.98;;;10.60;99.90;;;-144.05;84.10;56925.28;5374097;26;20005;-80
2024/04/15 05:33:46;;;;;;;21.92;13.15;;;;;;;-144.05;83.61;56897.69;5377828;26;20070;-79
2024/04/15 05:36:12;;;;;;;18.70;11.95;;;;;;;-144.05;83.87;56880.69;5381234;26;20000;-79
2024/04/15 05:38:38;;;;;;;18.92;11.68;;;10.50;99.90;;;-144.05;83.76;56914.69;5380790;26;20000;-80
2024/04/15 05:41:04;;;;;;;20.17;11.73;;;7.10;99.90;;;-144.05;83.04;56908.31;5380376;26;20058;-80
2024/04/15 05:43:30;;;;;;;22.08;11.18;;;7.30;99.90;;;-144.05;82.19;56908.31;5380500;26;20015;-82
2024/04/15 05:45:55;;;;;;;17.95;9.98;;;9.10;99.90;;;-144.05;81.94;56906.19;5349602;26;20004;-80
2024/04/15 05:48:22;;;;;;;17.65;10.30;;;;;;;-144.05;81.67;56901.94;5380981;26;20004;-80
2024/04/15 05:50:47;;;;;;;19.83;10.25;;;10.60;99.90;;;-144.05;81.65;56904.06;5380667;26;20460;-80
2024/04/15 05:53:13;;;;;;;21.52;10.55;;;6.90;99.90;;;-144.05;81.94;56908.31;5381770;26;20008;-80
2024/04/15 05:55:40;;;;;;;22.65;11.65;;;8.00;99.90;;;-144.05;81.98;56912.56;5380516;26;19996;-81
2024/04/15 05:58:06;;;;;;;18.20;10.85;;;7.40;99.90;;;-144.05;81.44;56929.53;5380396;26;20011;-79
2024/04/15 06:00:33;;;;;;;21.30;10.27;;;;;;;-144.05;81.37;56882.81;5349619;26;20008;-79
2024/04/15 06:02:58;;;;;;;17.88;9.35;;;8.00;99.90;;;-144.05;78.99;56906.19;5345763;26;19998;-81
2024/04/15 06:05:25;;;;;;;17.63;9.18;;;;;;;-144.05;77.01;56874.31;5377988;26;20004;-79
2024/04/15 06:07:52;;;;;;;13.82;7.78;;;7.30;99.90;;;-144.05;76.59;56895.56;5317662;26;19997;-81
2024/04/15 06:10:18;;;;;;;14.20;8.18;;;7.80;99.90;;;-144.05;76.79;56878.56;5375070;26;20000;-80
2024/04/15 06:12:44;;;;;;;15.38;7.82;;;;;;;-144.05;76.86;56872.19;5380244;26;20017;-79
2024/04/15 06:15:10;;;;;;;13.80;7.00;;;;;;;-144.05;76.96;56887.06;5378708;26;20116;-79
2024/04/15 06:17:36;;;;;;;14.13;6.90;;;;;;;-144.05;76.32;56884.94;5400291;26;20004;-79
2024/04/15 06:20:02;;;;;;;14.48;6.63;;;7.10;99.90;;;-144.05;76.85;56912.56;5380320;26;20421;-80
2024/04/15 06:22:28;;;;;;;11.82;6.38;;;7.10;99.90;;;-144.05;77.02;56884.94;5349109;26;19996;-79
2024/04/15 06:24:54;;;;;;;14.50;7.03;;;7.30;99.90;;;-144.05;76.87;56904.06;5374334;26;20000;-81
2024/04/15 06:27:20;;;;;;;12.98;7.15;;;10.80;99.90;;;-144.05;76.52;56914.69;5376722;26;20011;-79
2024/04/15 06:29:48;;;;;;;16.80;6.65;;;13.70;99.90;;;-144.05;76.64;56897.69;5378756;26;20003;-80
2024/04/15 06:32:14;;;;;;;10.85;5.97;;;6.80;99.90;;;-144.05;76.36;56901.94;5376222;26;20522;-80
2024/04/15 06:34:40;;;;;;;15.38;5.93;;;;;;;-144.05;76.58;56916.81;5395833;26;20008;-79
2024/04/15 06:37:06;;;;;;;14.07;5.65;;;;;;;-144.05;76.75;56889.19;5384247;26;20069;-77
2024/04/15 06:39:33;;;;;;;15.52;6.25;;;10.90;99.90;;;-144.05;76.77;56904.06;5383647;26;20000;-78
2024/04/15 06:42:00;;;;;;;14.27;5.85;;;;;;;-144.05;76.41;56882.81;5372808;26;20466;-78
2024/04/15 06:44:26;;;;;;;14.95;5.60;;;7.60;99.90;;;-144.05;76.79;56895.56;5380269;26;20019;-79
2024/04/15 06:46:52;;;;;;;11.10;5.03;;;7.70;99.90;;;-144.05;77.21;56904.06;5383522;26;20000;-78
2024/04/15 06:49:18;;;;;;;12.73;5.30;;;;;;;-144.05;77.26;56906.19;5383216;26;20307;-80
2024/04/15 06:51:44;;;;;;;13.35;6.40;;;7.40;99.90;;;-144.05;76.46;56931.66;5381787;26;20077;-81
2024/04/15 06:54:10;;;;;;;12.32;5.65;;;7.50;99.90;;;-144.05;76.99;56891.31;5350201;26;20008;-81
2024/04/15 06:56:36;;;;;;;11.98;4.82;;;7.80;99.90;;;-144.05;75.30;56895.56;5380339;26;20000;-78
2024/04/15 06:59:02;;;;;;;10.20;4.90;;;14.00;99.90;;;-144.05;74.55;56897.69;5381494;26;20008;-80
2024/04/15 07:01:28;;;;;;;11.88;4.90;;;;;;;-144.05;73.94;56910.44;5382624;26;20000;-78
2024/04/15 07:03:56;;;;;;;11.82;4.78;;;;;;;-144.05;74.22;56882.81;5382394;26;19996;-79
2024/04/15 07:06:24;;;;;;;10.65;4.82;;;7.70;99.90;;;-144.05;73.79;56887.06;5379628;26;19996;-78
2024/04/15 07:08:50;;;;;;;8.00;4.38;;;7.40;99.90;;;-144.05;74.16;56908.31;5349667;26;19997;-78
2024/04/15 07:11:16;;;;;;;11.32;5.20;;;7.40;99.90;;;-144.05;74.61;56908.31;5383600;26;20011;-78
2024/04/15 07:13:43;;;;;;;8.15;4.65;;;;;;;-144.05;74.41;56870.06;5382368;26;20038;-79
2024/04/15 07:16:09;;;;;;;8.82;4.70;;;;;;;-144.05;74.76;56908.31;5382852;26;20039;-80
2024/04/15 07:18:35;;;;;;;12.50;4.60;;;7.80;99.90;;;-144.05;74.41;56889.19;5383976;26;20021;-81
2024/04/15 07:21:02;;;;;;;11.65;5.18;;;;;;;-144.05;74.62;56887.06;5383256;26;20015;-81
2024/04/15 07:23:28;;;;;;;12.18;5.32;;;7.40;99.90;;;-144.05;74.46;56916.81;5383546;26;20510;-79
2024/04/15 07:26:01;;;;;;;11.48;4.55;;;13.90;99.90;;;-144.05;75.03;56893.44;5376446;26;20114;-83
2024/04/15 07:28:28;;;;;;;14.77;5.47;;;10.30;99.90;;;-144.05;75.23;56918.94;5348807;26;20001;-79
2024/04/15 07:31:04;;;;;;;17.70;5.10;;;9.30;99.90;;;-144.05;74.90;56897.69;5384149;26;20325;-79
2024/04/15 07:33:30;;;;;;;12.10;6.90;;;;;;;-144.05;74.72;56910.44;5348430;26;19997;-79
2024/04/15 07:36:00;;;;;;;9.93;5.25;;;9.70;99.90;;;-144.05;73.30;56906.19;5382604;26;20012;-80
2024/04/15 07:38:26;;;;;;;11.75;5.28;;;7.30;99.90;;;-144.05;73.14;56889.19;5382816;26;20004;-79
2024/04/15 07:40:54;;;;;;;15.43;4.93;;;;;;;-144.05;73.55;56918.94;5380140;26;20028;-80
2024/04/15 07:43:20;;;;;;;14.63;5.55;;;11.10;99.90;;;-144.05;73.29;56901.94;5346209;26;20001;-80
2024/04/15 07:45:47;;;;;;;15.07;6.10;;;;;;;-144.05;72.96;56901.94;5397120;26;20003;-79
2024/04/15 07:48:16;;;;;;;17.90;5.43;;;9.80;99.90;;;-144.05;71.79;56897.69;5395056;26;20007;-82
2024/04/15 07:50:42;;;;;;;11.73;4.60;;;13.30;99.90;;;-144.05;70.62;56906.19;5382556;26;20008;-79
2024/04/15 07:53:08;;;;;;;17.67;5.47;;;10.60;99.90;;;-144.05;69.41;56908.31;5348366;26;20413;-79
2024/04/15 07:55:34;;;;;;;9.57;3.80;;;14.20;99.90;;;-144.05;68.35;56897.69;5379860;26;20065;-80
2024/04/15 07:58:00;;;;;;;11.27;4.45;;;13.90;99.90;;;-144.05;66.57;56878.56;5383799;26;20001;-81
2024/04/15 08:00:26;;;;;;;11.60;4.55;;;;;;;-144.05;66.63;56891.31;5358707;26;20480;-79
2024/04/15 08:02:52;;;;;;;18.27;3.72;;;8.60;99.90;;;-144.05;64.68;56870.06;5348909;26;20455;-79
2024/04/15 08:05:17;;;;;;;8.02;3.40;;;8.50;99.90;;;-144.05;63.12;56880.69;5382453;26;19997;-79
2024/04/15 08:07:43;;;;;;;13.18;4.40;;;14.60;99.90;;;-144.05;63.49;56874.31;5381666;26;20026;-77
2024/04/15 08:10:09;;;;;;;7.65;3.65;;;14.40;99.90;;;-144.05;62.30;56884.94;5374941;26;20008;-76
2024/04/15 08:12:35;;;;;;;13.40;3.83;;;14.40;99.90;;;-144.05;63.12;56872.19;5392266;26;20456;-81
2024/04/15 08:15:02;;;;;;;9.30;3.38;;;;;;;-144.05;62.52;56876.44;5342188;26;20011;-82
2024/04/15 08:17:27;;;;;;;8.38;3.03;;;14.50;99.90;;;-144.05;61.17;56904.06;5352401;26;20034;-79
2024/04/15 08:19:53;;;;;;;9.38;3.35;;;8.10;99.90;;;-144.05;61.82;56889.19;5383205;26;20036;-79
2024/04/15 08:22:20;;;;;;;8.38;3.28;;;;;;;-144.05;62.08;56876.44;5382918;26;20039;-83
2024/04/15 08:24:49;;;;;;;9.45;2.90;;;14.30;99.90;;;-144.05;61.75;56878.56;5373423;26;20015;-78
2024/04/15 08:27:16;;;;;;;11.63;3.05;;;;;;;-144.05;61.45;56891.31;5345710;26;20062;-81
2024/04/15 08:29:44;;;;;;;7.32;2.75;;;14.40;99.90;;;-144.05;60.26;56884.94;5389061;26;20269;-79
2024/04/15 08:32:10;;;;;;;11.73;2.90;;;14.50;99.90;;;-144.05;61.16;56870.06;5347641;26;20001;-78
2024/04/15 08:34:36;;;;;;;10.63;2.97;;;8.80;99.90;;;-144.05;59.46;56882.81;5358012;26;19999;-79
2024/04/15 08:37:04;;;;;;;9.40;2.88;;;;;;;-144.05;58.89;56897.69;5333051;26;20456;-79
2024/04/15 08:39:29;;;;;;;9.43;2.85;;;14.50;99.90;;;-144.05;59.84;56876.44;5378227;26;20473;-78
2024/04/15 08:42:19;;;;;;;7.85;3.47;;;14.40;99.90;;;-144.05;59.90;56874.31;5373147;26;20012;-79
2024/04/15 08:44:48;;;;;;;7.65;2.40;;;14.60;99.90;;;-144.05;57.66;56878.56;5351040;26;20469;-79
2024/04/15 08:47:35;;;;;;;8.85;2.88;;;9.20;99.90;;;-144.05;58.23;56876.44;5382971;26;20004;-79
2024/04/15 08:50:05;;;;;;;8.13;1.98;;;9.20;99.90;;;-144.05;56.25;56901.94;5382822;26;19996;-77
2024/04/15 08:52:31;;;;;;;6.80;2.47;;;8.90;99.90;;;-144.05;58.02;56891.31;5382717;26;20015;-78
2024/04/15 08:54:57;;;;;;;10.02;2.17;;;14.30;99.90;;;-144.05;56.08;56861.56;5351821;26;20000;-80
2024/04/15 08:57:27;;;;;;;15.07;2.60;;;8.20;99.90;;;-144.05;56.76;56876.44;5382213;26;20000;-80
2024/04/15 08:59:57;;;;;;;9.40;2.50;;;14.60;99.90;;;-144.05;58.21;56897.69;5380896;26;20008;-80
2024/04/15 09:02:24;;;;;;;8.63;2.20;;;9.20;99.90;;;-144.05;56.90;56897.69;5382446;26;20008;-80
2024/04/15 09:04:51;;;;;;;5.97;2.17;;;8.70;99.90;;;-144.05;58.51;56867.94;5350834;26;20001;-78
2024/04/15 09:07:17;;;;;;;8.48;2.50;;;;;;;-144.05;57.13;56897.69;5346909;26;19997;-79
2024/04/15 09:09:43;;;;;;;9.65;2.30;;;;;;;-144.05;57.24;56882.81;5351163;26;20070;-77
2024/04/15 09:12:09;;;;;;;10.57;2.22;;;8.30;99.90;;;-144.05;57.97;56904.06;5379628;26;19996;-79
2024/04/15 09:14:35;;;;;;;6.18;2.40;;;;;;;-144.05;57.68;56889.19;5367226;26;20020;-76
2024/04/15 09:17:02;;;;;;;4.60;1.58;;;;;;;-144.05;57.46;56878.56;5362894;26;20001;-80
2024/04/15 09:19:29;;;;;;;6.30;1.80;;;8.80;99.90;;;-144.05;56.46;56882.81;5352871;26;20000;-79
2024/04/15 09:22:01;;;;;;;7.70;2.28;;;14.20;99.90;;;-144.05;56.50;56870.06;5373605;26;20019;-80
2024/04/15 09:24:28;;;;;;;7.57;1.58;;;;;;;-144.05;57.05;56887.06;5372897;26;20354;-78
2024/04/15 09:26:55;;;;;;;8.57;2.10;;;;;;;-144.05;55.87;56876.44;5352283;26;20004;-81
2024/04/15 09:29:20;;;;;;;7.57;2.30;;;8.30;99.90;;;-144.05;55.96;56901.94;5381888;26;20019;-78
2024/04/15 09:31:47;;;;;;;5.47;2.28;;;14.60;99.90;;;-144.05;57.00;56895.56;5382134;26;20000;-80
2024/04/15 09:34:15;;;;;;;7.97;1.67;;;9.20;99.90;;;-144.05;56.69;56891.31;5382741;26;20009;-80
2024/04/15 09:36:42;;;;;;;7.90;1.45;;;14.00;99.90;;;-144.05;54.48;56891.31;5383825;26;20000;-79
2024/04/15 09:39:08;;;;;;;6.45;1.63;;;14.50;99.90;;;-144.05;54.05;56893.44;5362742;26;20348;-81
2024/04/15 09:41:35;;;;;;;9.30;2.38;;;9.50;99.90;;;-144.05;53.56;56878.56;5382138;26;20016;-78
2024/04/15 09:44:00;;;;;;;6.00;1.83;;;8.80;99.90;;;-144.05;54.51;56872.19;5383136;26;20000;-81
2024/04/15 09:46:32;;;;;;;7.75;2.03;;;;;;;-144.05;54.42;56878.56;5383572;26;20000;-80
2024/04/15 09:49:03;;;;;;;4.68;1.67;;;9.20;99.90;;;-144.05;52.81;56876.44;5370815;26;20000;-80
2024/04/15 09:51:33;;;;;;;8.88;1.70;;;10.20;99.90;;;-144.05;52.46;56880.69;5383410;26;20000;-78
2024/04/15 09:54:08;;;;;;;10.07;1.65;;;9.50;99.90;;;-144.05;53.61;56870.06;5346057;26;20013;-81
2024/04/15 09:56:44;;;;;;;4.85;1.70;;;9.80;99.90;;;-144.05;53.70;56889.19;5399952;26;20012;-80
2024/04/15 09:59:15;;;;;;;8.07;1.60;;;9.80;99.90;;;-144.05;53.05;56891.31;5347383;26;19996;-82
2024/04/15 10:01:43;;;;;;;5.90;1.50;;;12.30;99.90;;;-144.05;52.70;56867.94;5381423;26;20001;-81
2024/04/15 10:04:22;;;;;;;10.75;2.03;;;9.30;99.90;;;-144.05;52.43;56891.31;5383179;26;19996;-81
2024/04/15 10:06:58;;;;;;;4.47;1.40;;;9.10;99.90;;;-144.05;53.25;56887.06;5351347;26;20815;-81
2024/04/15 10:09:24;;;;;;;10.23;1.90;;;9.20;99.90;;;-144.05;53.85;56891.31;5382665;26;20007;-80
2024/04/15 10:11:51;;;;;;;7.50;1.50;;;11.90;99.90;;;-144.05;52.92;56878.56;5383090;26;20042;-77
2024/04/15 10:14:21;;;;;;;5.60;1.23;;;14.50;99.90;;;-144.05;52.63;56884.94;5382449;26;20000;-83
2024/04/15 10:16:49;;;;;;;6.10;1.70;;;14.60;99.90;;;-144.05;51.49;56878.56;5382909;26;20008;-81
2024/04/15 10:19:28;;;;;;;5.60;1.42;;;10.60;99.90;;;-144.05;51.14;56882.81;5384296;26;20078;-79
2024/04/15 10:21:55;;;;;;;5.75;1.65;;;14.70;99.90;;;-144.05;52.07;56880.69;5351824;26;20008;-81